Weather History for KGGE - December, 2011

Change the Weather History Date:

Monday, December 19, 2011

  Actual Average Record
Temperature  
Mean Temperature 46 °F -  
Max Temperature 62 °F 61 °F 68 °F (2012)
Min Temperature 30 °F 34 °F 28 °F (2013)
Degree Days  
Heating Degree Days 19    
Moisture  
Dew Point 35 °F    
Average Humidity 72    
Maximum Humidity 93    
Minimum Humidity 39    
Precipitation  
Precipitation 0.00 in - - ()
Sea Level Pressure  
Sea Level Pressure 30.34 in    
Wind  
Wind Speed 2 mph (South)    
Max Wind Speed 10 mph    
Max Gust Speed -    
Visibility 10 miles    
Events      
Averages and records for this station are not official NWS values.
T = Trace of Precipitation, MM = Missing Value Source: NWS Daily Summary

Daily Weather History Graph

Daily Weather History Graph

Search for Another Location

Airport or City:

Trip Planner

Search our weather history database for the weather conditions in past years. The results will help you decide how hot, cold, wet, or windy it might be!

Date:

Astronomy

Dec. 19, 2011 Rise Set
Actual Time 7:15 AM EST 5:12 PM EST
Civil Twilight 6:48 AM EST 5:40 PM EST
Nautical Twilight 6:17 AM EST 6:11 PM EST
Astronomical Twilight 5:46 AM EST 6:41 PM EST
Moon 1:35 AM EST (12/19) 1:00 PM EST (12/19)
Length of Visible Light 10h 52m
Length of Day
9h 56m
Waning Crescent, 31% of the Moon is Illuminated
Dec 19
Waning Crescent
Dec 24
New
Jan 1
First Quarter
Jan 9
Full
Jan 16
Last Quarter

Hourly Weather History & Observations

Time (EST) Temp. Windchill Dew Point Humidity Pressure Visibility Wind Dir Wind Speed Gust Speed Precip Events Conditions
12:15 AM 32.0 °F - 28.4 °F 87% 30.38 in 10.0 mi Calm Calm - N/A   Clear
12:35 AM 30.2 °F - 28.4 °F 93% 30.37 in 10.0 mi Calm Calm - N/A   Clear
12:55 AM 30.2 °F - 26.6 °F 86% 30.36 in 10.0 mi Calm Calm - N/A   Clear
1:15 AM 30.2 °F - 26.6 °F 86% 30.35 in 10.0 mi Calm Calm - N/A   Clear
1:35 AM 30.2 °F - 26.6 °F 86% 30.35 in 10.0 mi Calm Calm - N/A   Clear
1:55 AM 30.2 °F 26.7 °F 28.4 °F 93% 30.37 in 10.0 mi WNW 3.5 mph - N/A   Clear
2:15 AM 32.0 °F - 30.2 °F 93% 30.36 in 10.0 mi Calm Calm - N/A   Clear
2:35 AM 32.0 °F - 28.4 °F 87% 30.35 in 10.0 mi Calm Calm - N/A   Clear
2:55 AM 32.0 °F - 28.4 °F 87% 30.35 in 10.0 mi Calm Calm - N/A   Clear
3:15 AM 32.0 °F - 30.2 °F 93% 30.35 in 10.0 mi Calm Calm - N/A   Clear
3:35 AM 32.0 °F - 30.2 °F 93% 30.35 in 10.0 mi Calm Calm - N/A   Clear
3:55 AM 32.0 °F - 30.2 °F 93% 30.34 in 10.0 mi Calm Calm - N/A   Clear
4:15 AM 32.0 °F - 28.4 °F 87% 30.34 in 10.0 mi Calm Calm - N/A   Clear
4:35 AM 30.2 °F - 28.4 °F 93% 30.34 in 10.0 mi Calm Calm - N/A   Clear
4:55 AM 30.2 °F - 28.4 °F 93% 30.34 in 10.0 mi Calm Calm - N/A   Clear
5:15 AM 30.2 °F - 28.4 °F 93% 30.34 in 10.0 mi Calm Calm - N/A   Clear
5:35 AM 30.2 °F - 28.4 °F 93% 30.35 in 10.0 mi Calm Calm - N/A   Clear
5:55 AM 30.2 °F - 28.4 °F 93% 30.35 in 10.0 mi Calm Calm - N/A   Clear
6:15 AM 32.0 °F - 28.4 °F 87% 30.36 in 10.0 mi Calm Calm - N/A   Clear
6:35 AM 32.0 °F - 28.4 °F 87% 30.36 in 10.0 mi Calm Calm - N/A   Clear
6:55 AM 32.0 °F - 28.4 °F 87% 30.37 in 10.0 mi Calm Calm - N/A   Clear
7:15 AM 30.2 °F - 28.4 °F 93% 30.38 in 10.0 mi Calm Calm - N/A   Clear
7:35 AM 32.0 °F - 30.2 °F 93% 30.38 in 10.0 mi Calm Calm - N/A   Clear
7:55 AM 32.0 °F - 30.2 °F 93% 30.38 in 10.0 mi Calm Calm - N/A   Clear
8:15 AM 33.8 °F - 32.0 °F 93% 30.39 in 10.0 mi Calm Calm - N/A   Clear
8:35 AM 37.4 °F - 35.6 °F 93% 30.39 in 10.0 mi Calm Calm - N/A   Clear
8:55 AM 42.8 °F - 41.0 °F 93% 30.39 in 10.0 mi Calm Calm - N/A   Clear
9:15 AM 46.4 °F - 41.0 °F 81% 30.39 in 10.0 mi Calm Calm - N/A   Clear
9:35 AM 50.0 °F - 41.0 °F 71% 30.39 in 10.0 mi Calm Calm - N/A   Clear
9:55 AM 53.6 °F - 41.0 °F 62% 30.39 in 10.0 mi ESE 3.5 mph - N/A   Clear
10:15 AM 57.2 °F - 37.4 °F 48% 30.39 in 10.0 mi ESE 6.9 mph - N/A   Clear
10:35 AM 59.0 °F - 37.4 °F 45% 30.39 in 10.0 mi ESE 6.9 mph - N/A   Clear
10:55 AM 59.0 °F - 37.4 °F 45% 30.39 in 10.0 mi East 8.1 mph - N/A   Clear
11:15 AM 59.0 °F - 37.4 °F 45% 30.38 in 10.0 mi ESE 8.1 mph - N/A   Clear
11:35 AM 60.8 °F - 37.4 °F 42% 30.37 in 10.0 mi ESE 8.1 mph - N/A   Clear
12:15 PM 60.8 °F - 35.6 °F 39% 30.35 in 10.0 mi South 4.6 mph - N/A   Clear
12:35 PM 62.6 °F - 37.4 °F 39% 30.34 in 10.0 mi Calm Calm - N/A   Clear
12:55 PM 62.6 °F - 37.4 °F 39% 30.33 in 10.0 mi SSW 9.2 mph - N/A   Clear
1:15 PM 62.6 °F - 37.4 °F 39% 30.32 in 10.0 mi SSW 8.1 mph - N/A   Clear
1:35 PM 62.6 °F - 37.4 °F 39% 30.32 in 10.0 mi SSW 6.9 mph - N/A   Clear
1:55 PM 62.6 °F - 39.2 °F 42% 30.31 in 10.0 mi SSE 10.4 mph - N/A   Clear
2:15 PM 62.6 °F - 41.0 °F 45% 30.30 in 10.0 mi South 8.1 mph - N/A   Clear
2:35 PM 62.6 °F - 41.0 °F 45% 30.29 in 10.0 mi SSW 10.4 mph - N/A   Clear
2:55 PM 62.6 °F - 39.2 °F 42% 30.29 in 10.0 mi SSW 8.1 mph - N/A   Clear
3:15 PM 62.6 °F - 39.2 °F 42% 30.29 in 10.0 mi SW 8.1 mph - N/A   Clear
3:35 PM 62.6 °F - 42.8 °F 48% 30.29 in 10.0 mi SSW 8.1 mph - N/A   Clear
3:55 PM 62.6 °F - 42.8 °F 48% 30.29 in 10.0 mi SW 10.4 mph - N/A   Scattered Clouds
4:15 PM 60.8 °F - 42.8 °F 52% 30.29 in 10.0 mi South 9.2 mph - N/A   Clear
4:35 PM 60.8 °F - 44.6 °F 55% 30.29 in 10.0 mi SSW 6.9 mph - N/A   Clear
4:55 PM 59.0 °F - 44.6 °F 59% 30.29 in 10.0 mi South 5.8 mph - N/A   Clear
5:15 PM 55.4 °F - 44.6 °F 67% 30.29 in 10.0 mi South 3.5 mph - N/A   Clear
5:35 PM 53.6 °F - 44.6 °F 72% 30.29 in 10.0 mi South 3.5 mph - N/A   Clear
5:55 PM 50.0 °F - 44.6 °F 82% 30.29 in 10.0 mi South 3.5 mph - N/A   Clear
6:15 PM 51.8 °F - 44.6 °F 76% 30.29 in 10.0 mi Calm Calm - N/A   Clear
6:35 PM 50.0 °F - 44.6 °F 82% 30.29 in 10.0 mi Calm Calm - N/A   Clear
6:55 PM 46.4 °F - 42.8 °F 87% 30.30 in 10.0 mi Calm Calm - N/A   Clear
7:15 PM 44.6 °F - 42.8 °F 93% 30.29 in 10.0 mi Calm Calm - N/A   Clear
7:35 PM 46.4 °F - 42.8 °F 87% 30.29 in 10.0 mi Calm Calm - N/A   Clear
7:55 PM 48.2 °F - 42.8 °F 82% 30.30 in 10.0 mi Calm Calm - N/A   Clear
8:15 PM 44.6 °F - 41.0 °F 87% 30.30 in 10.0 mi Calm Calm - N/A   Clear
8:35 PM 44.6 °F - 41.0 °F 87% 30.30 in 10.0 mi Calm Calm - N/A   Clear
8:55 PM 44.6 °F - 41.0 °F 87% 30.30 in 10.0 mi Calm Calm - N/A   Clear
9:15 PM 44.6 °F - 41.0 °F 87% 30.30 in 10.0 mi Calm Calm - N/A   Clear
9:35 PM 42.8 °F - 41.0 °F 93% 30.30 in 10.0 mi Calm Calm - N/A   Clear
9:55 PM 42.8 °F - 41.0 °F 93% 30.29 in 10.0 mi Calm Calm - N/A   Clear
10:15 PM 42.8 °F - 39.2 °F 87% 30.29 in 10.0 mi Calm Calm - N/A   Clear
10:35 PM 42.8 °F - 41.0 °F 93% 30.29 in 10.0 mi Calm Calm - N/A   Clear
10:55 PM 41.0 °F - 39.2 °F 93% 30.28 in 7.0 mi Calm Calm - N/A   Clear
11:15 PM 42.8 °F - 37.4 °F 81% 30.27 in 10.0 mi Calm Calm - N/A   Clear
11:35 PM 41.0 °F - 37.4 °F 87% 30.27 in 10.0 mi Calm Calm - N/A   Clear
11:55 PM 42.8 °F - 39.2 °F 87% 30.27 in 10.0 mi Calm Calm - N/A   Clear